Time;durP1;ratioP1;P1;durP2;ratioP2;P2;SDS_P1;SDS_P2;PMS_P1;PMS_P2;Temp;Humidity;BMP_temperature;BMP_pressure;BME280_temperature;BME280_humidity;BME280_pressure;Samples;Min_cycle;Max_cycle;Signal;HPM_P1;HPM_P2
2022/12/01 00:01:03;;;;;;;55.10;20.30;;;;;;;6.99;69.48;102930.00;5056768;28;20048;-41
2022/12/01 00:03:30;;;;;;;55.63;21.10;;;;;;;7.03;69.24;102935.47;5053060;28;20477;-42
2022/12/01 00:06:00;;;;;;;50.00;19.90;;;;;;;7.00;68.88;102934.41;5050981;28;20028;-42
2022/12/01 00:08:26;;;;;;;49.50;19.58;;;;;;;6.98;68.86;102930.81;5051961;28;20028;-41
2022/12/01 00:10:52;;;;;;;48.97;19.40;;;;;;;7.03;68.74;102938.06;5051702;28;20044;-43
2022/12/01 00:13:17;;;;;;;49.72;19.58;;;;;;;6.97;68.73;102931.59;5052225;28;20060;-43
2022/12/01 00:15:42;;;;;;;49.70;19.30;;;;;;;6.95;68.90;102934.13;5052173;28;20021;-42
2022/12/01 00:18:08;;;;;;;48.33;18.98;;;;;;;6.96;68.99;102930.72;5052818;28;20028;-42
2022/12/01 00:20:33;;;;;;;49.67;19.25;;;;;;;6.97;68.82;102929.00;5052662;28;20025;-42
2022/12/01 00:22:59;;;;;;;49.55;19.25;;;;;;;6.96;69.03;102930.72;5052659;28;20031;-42
2022/12/01 00:25:26;;;;;;;48.30;19.10;;;;;;;6.95;69.18;102933.22;5051561;28;20504;-44
2022/12/01 00:27:52;;;;;;;49.10;19.02;;;;;;;6.90;69.03;102926.03;5051643;28;20031;-43
2022/12/01 00:30:19;;;;;;;53.13;19.77;;;;;;;6.87;69.20;102937.94;5051448;28;20041;-39
2022/12/01 00:32:44;;;;;;;52.10;20.48;;;;;;;6.81;69.18;102932.38;5051834;28;20116;-42
2022/12/01 00:35:10;;;;;;;50.08;19.40;;;;;;;6.79;69.27;102932.28;5051951;28;20039;-41
2022/12/01 00:37:36;;;;;;;50.10;18.75;;;;;;;6.75;69.37;102934.59;5052621;28;20036;-45
2022/12/01 00:40:02;;;;;;;48.72;19.17;;;;;;;6.73;69.39;102937.09;5054209;28;20024;-44
2022/12/01 00:42:28;;;;;;;47.65;19.25;;;;;;;6.69;69.07;102936.81;5055211;28;20036;-42
2022/12/01 00:44:53;;;;;;;44.33;17.80;;;;;;;6.70;68.97;102928.25;5055504;28;20025;-42
2022/12/01 00:47:19;;;;;;;46.08;19.08;;;;;;;6.76;69.06;102934.69;5053950;28;20111;-42
2022/12/01 00:49:45;;;;;;;49.38;18.80;;;;;;;6.71;69.74;102930.91;5053096;28;20021;-43
2022/12/01 00:52:11;;;;;;;48.83;18.50;;;;;;;6.77;69.52;102940.78;5053578;28;20021;-42
2022/12/01 00:54:36;;;;;;;53.65;18.92;;;;;;;6.80;69.71;102935.78;5053507;28;20471;-42
2022/12/01 00:57:02;;;;;;;53.67;19.60;;;;;;;6.81;70.01;102940.16;5053043;28;20107;-44
2022/12/01 00:59:27;;;;;;;48.95;19.50;;;;;;;6.93;69.72;102943.50;5051886;28;20028;-39
2022/12/01 01:01:52;;;;;;;54.25;19.95;;;;;;;7.04;69.90;102944.16;5055484;28;20025;-44
2022/12/01 01:04:18;;;;;;;61.35;21.27;;;;;;;7.04;70.34;102941.56;5054892;28;20035;-43
2022/12/01 01:06:44;;;;;;;66.47;22.27;;;;;;;7.12;70.93;102943.81;5052883;28;20324;-41
2022/12/01 01:09:10;;;;;;;64.40;21.10;;;;;;;7.24;70.61;102944.56;5053330;28;20052;-44
2022/12/01 01:11:35;;;;;;;67.80;22.38;;;;;;;7.16;71.15;102943.19;5052045;28;20028;-43
2022/12/01 01:14:01;;;;;;;54.00;20.02;;;;;;;7.33;70.11;102939.88;5051292;28;20405;-42
2022/12/01 01:16:27;;;;;;;60.55;21.95;;;;;;;7.26;70.62;102948.09;5050767;28;20056;-44
2022/12/01 01:18:52;;;;;;;60.17;21.48;;;;;;;7.37;70.15;102948.78;5050806;28;20390;-41
2022/12/01 01:21:20;;;;;;;56.28;20.75;;;;;;;7.46;70.64;102945.81;5050483;28;20469;-41
2022/12/01 01:23:46;;;;;;;64.60;23.13;;;;;;;7.46;70.66;102951.00;5050851;28;20024;-41
2022/12/01 01:26:19;;;;;;;65.80;22.27;;;;;;;7.59;70.42;102943.13;5051180;28;20025;-41
2022/12/01 01:28:46;;;;;;;75.45;25.10;;;;;;;7.52;70.78;102953.94;5050987;28;20365;-40
2022/12/01 01:31:14;;;;;;;68.97;22.73;;;;;;;7.72;70.59;102949.13;5050289;28;20035;-43
2022/12/01 01:33:40;;;;;;;64.65;22.92;;;;;;;7.75;70.42;102957.06;5050697;28;20528;-41
2022/12/01 01:36:06;;;;;;;76.05;23.80;;;;;;;7.67;70.89;102950.56;5049852;28;20281;-41
2022/12/01 01:38:32;;;;;;;65.82;22.80;;;;;;;7.72;70.97;102959.50;5051133;28;20027;-42
2022/12/01 01:40:57;;;;;;;79.70;24.83;;;;;;;7.55;71.41;102961.94;5051888;28;20083;-42
2022/12/01 01:43:48;;;;;;;74.18;24.10;;;;;;;7.84;70.93;102968.81;5052981;28;20409;-44
2022/12/01 01:46:18;;;;;;;74.72;23.65;;;;;;;7.68;71.23;102969.63;5052065;28;20028;-43
2022/12/01 01:48:48;;;;;;;79.47;24.40;;;;;;;7.85;71.16;102955.91;5050854;28;20112;-41
2022/12/01 01:51:16;;;;;;;78.07;24.70;;;;;;;7.90;71.40;102962.28;5050704;28;20112;-43
2022/12/01 01:53:44;;;;;;;79.97;24.92;;;;;;;7.89;71.09;102962.16;5050329;28;20028;-42
2022/12/01 01:56:09;;;;;;;79.70;25.40;;;;;;;7.95;71.33;102959.94;5050472;28;20021;-42
2022/12/01 01:58:37;;;;;;;72.38;23.67;;;;;;;8.07;70.69;102958.91;5050607;28;20032;-42
2022/12/01 02:01:02;;;;;;;72.55;24.92;;;;;;;8.08;70.56;102963.31;5050179;28;20021;-43
2022/12/01 02:03:28;;;;;;;71.38;23.67;;;;;;;7.97;70.77;102964.41;5050605;28;20025;-41
2022/12/01 02:05:54;;;;;;;72.88;24.25;;;;;;;8.00;70.37;102959.38;5050826;28;20029;-42
2022/12/01 02:08:19;;;;;;;78.50;24.42;;;;;;;7.97;70.32;102953.13;5050898;28;20050;-42
2022/12/01 02:10:54;;;;;;;77.60;24.90;;;;;;;7.89;70.22;102954.38;5051489;28;20040;-39
2022/12/01 02:13:40;;;;;;;70.18;24.30;;;;;;;7.95;69.96;102953.03;5053057;28;20035;-38
2022/12/01 02:16:32;;;;;;;77.72;25.85;;;;;;;7.50;71.36;102956.44;5052932;28;20377;-41
2022/12/01 02:19:28;;;;;;;79.68;24.38;;;;;;;7.73;70.55;102955.22;5028634;28;20037;-42
2022/12/01 02:22:22;;;;;;;79.72;24.85;;;;;;;7.52;71.24;102941.88;5051137;28;20025;-42
2022/12/01 02:24:50;;;;;;;71.13;22.27;;;;;;;7.59;69.84;102946.63;5034767;28;20040;-41
2022/12/01 02:27:35;;;;;;;62.80;22.10;;;;;;;7.50;69.73;102933.09;5050281;28;20029;-44
2022/12/01 02:30:07;;;;;;;62.53;22.08;;;;;;;7.49;69.41;102941.72;5050163;28;20025;-43
2022/12/01 02:32:54;;;;;;;74.80;24.35;;;;;;;7.26;70.05;102934.25;5049940;28;20512;-41
2022/12/01 02:35:50;;;;;;;64.53;22.63;;;;;;;7.30;69.45;102942.31;5049982;28;20024;-41
2022/12/01 02:38:37;;;;;;;67.72;22.55;;;;;;;7.31;69.17;102944.13;5049685;28;20033;-42
2022/12/01 02:41:09;;;;;;;67.15;22.98;;;;;;;7.10;70.66;102941.91;5049635;28;20020;-44
2022/12/01 02:43:48;;;;;;;71.80;22.80;;;;;;;7.15;69.87;102936.19;5048520;28;20025;-44
2022/12/01 02:46:35;;;;;;;67.18;23.27;;;;;;;7.21;69.54;102941.75;5050083;28;20091;-43
2022/12/01 02:49:12;;;;;;;75.47;23.55;;;;;;;6.99;71.30;102948.16;5054306;28;20032;-41
2022/12/01 02:51:43;;;;;;;79.78;23.20;;;;;;;7.10;71.13;102944.50;5054372;28;20127;-43
2022/12/01 02:54:09;;;;;;;80.45;24.85;;;;;;;7.22;70.77;102950.44;5057656;28;20025;-40
2022/12/01 02:56:35;;;;;;;88.20;25.02;;;;;;;7.19;71.69;102940.78;5055772;28;20021;-45
2022/12/01 02:59:00;;;;;;;84.30;24.58;;;;;;;7.29;71.10;102940.53;5055813;28;20032;-43
2022/12/01 03:01:36;;;;;;;79.05;23.77;;;;;;;7.39;70.46;102941.94;5056207;28;20052;-44
2022/12/01 03:04:20;;;;;;;76.25;23.55;;;;;;;7.33;70.15;102942.50;5056678;28;20036;-41
2022/12/01 03:06:48;;;;;;;66.15;22.30;;;;;;;7.34;69.94;102944.28;5055565;28;20028;-42
2022/12/01 03:09:29;;;;;;;66.40;23.05;;;;;;;7.28;69.80;102946.50;5077701;22;20080;-43
2022/12/01 03:12:05;;;;;;;71.55;22.83;;;;;;;7.23;69.41;102940.16;5059472;28;20025;-41
2022/12/01 03:14:41;;;;;;;73.00;22.20;;;;;;;7.12;69.53;102937.72;5060011;28;20025;-42
2022/12/01 03:17:13;;;;;;;64.70;22.17;;;;;;;7.10;69.61;102949.69;5060302;28;20016;-42
2022/12/01 03:19:48;;;;;;;67.63;22.02;;;;;;;7.02;69.27;102943.16;5060159;28;20022;-43
2022/12/01 03:22:35;;;;;;;70.60;22.75;;;;;;;6.98;69.41;102944.66;5054535;28;20027;-47
2022/12/01 03:25:02;;;;;;;70.88;22.40;;;;;;;6.89;69.54;102944.13;5053065;28;20051;-43
2022/12/01 03:27:32;;;;;;;84.53;23.52;;;;;;;6.63;70.84;102942.50;5052999;28;20051;-41
2022/12/01 03:30:00;;;;;;;70.55;21.98;;;;;;;6.61;70.83;102940.63;5053296;28;20075;-42
2022/12/01 03:32:34;;;;;;;70.95;22.05;;;;;;;6.70;70.02;102941.19;5052659;28;20567;-43
2022/12/01 03:35:05;;;;;;;77.10;22.15;;;;;;;6.68;69.85;102938.50;5052880;28;20021;-42
2022/12/01 03:37:41;;;;;;;68.43;20.77;;;;;;;6.70;69.40;102942.09;5052592;28;20478;-42
2022/12/01 03:40:11;;;;;;;65.70;20.67;;;;;;;6.66;69.31;102944.38;5052383;28;20060;-43
2022/12/01 03:42:48;;;;;;;74.03;22.77;;;;;;;6.64;69.58;102946.00;5052423;28;20493;-43
2022/12/01 03:45:21;;;;;;;71.32;21.70;;;;;;;6.63;69.63;102947.69;5052654;28;20548;-42
2022/12/01 03:47:46;;;;;;;72.15;21.23;;;;;;;6.64;69.68;102941.72;5052362;28;20025;-44
2022/12/01 03:50:12;;;;;;;69.50;22.17;;;;;;;6.61;69.58;102938.91;5052870;28;20588;-43
2022/12/01 03:53:18;;;;;;;63.22;20.38;;;;;;;6.56;69.32;102937.75;5052542;28;20021;-43
2022/12/01 03:55:49;;;;;;;74.70;22.92;;;;;;;6.50;69.64;102943.44;5047851;28;20048;-42
2022/12/01 03:58:24;;;;;;;76.25;21.95;;;;;;;6.48;69.44;102938.94;5052210;28;20040;-42
2022/12/01 04:00:54;;;;;;;71.60;24.08;;;;;;;6.48;69.48;102936.34;5052209;28;20021;-44
2022/12/01 04:03:23;;;;;;;65.10;21.27;;;;;;;6.49;69.20;102941.66;5052285;28;20017;-42
2022/12/01 04:05:48;;;;;;;78.38;22.83;;;;;;;6.38;70.17;102945.25;5052592;28;20032;-43
2022/12/01 04:08:14;;;;;;;71.13;21.80;;;;;;;6.47;69.85;102940.66;5059662;28;20033;-43
2022/12/01 04:10:39;;;;;;;64.25;21.13;;;;;;;6.59;69.88;102950.00;5059306;28;20025;-43
2022/12/01 04:13:04;;;;;;;67.35;21.83;;;;;;;6.61;69.85;102950.97;5057960;28;20141;-44
2022/12/01 04:15:30;;;;;;;111.50;23.55;;;;;;;6.62;70.03;102943.31;5055552;28;20123;-47
2022/12/01 04:17:55;;;;;;;69.95;21.35;;;;;;;6.65;70.29;102937.44;5054706;28;20047;-42
2022/12/01 04:20:20;;;;;;;64.20;20.55;;;;;;;6.71;69.96;102941.28;5052610;28;20043;-42
2022/12/01 04:22:47;;;;;;;115.32;22.00;;;;;;;6.62;70.83;102943.31;5051500;28;20469;-43
2022/12/01 04:25:12;;;;;;;79.35;21.52;;;;;;;6.66;70.25;102944.38;5051210;28;20035;-45
2022/12/01 04:27:38;;;;;;;65.13;21.50;;;;;;;6.62;69.83;102945.00;5051177;28;20373;-44
2022/12/01 04:30:07;;;;;;;63.70;20.17;;;;;;;6.51;69.66;102947.84;5051555;28;20025;-42
2022/12/01 04:32:40;;;;;;;59.40;20.48;;;;;;;6.41;69.56;102952.31;5051147;28;20029;-42
2022/12/01 04:35:07;;;;;;;129.82;21.73;;;;;;;6.32;70.07;102959.53;5051613;28;20025;-42
2022/12/01 04:37:33;;;;;;;95.22;20.85;;;;;;;6.14;70.74;102956.66;5051338;28;20060;-43
2022/12/01 04:39:58;;;;;;;120.65;21.08;;;;;;;6.16;70.80;102954.16;5051431;28;20110;-45
2022/12/01 04:42:24;;;;;;;63.83;19.83;;;;;;;6.24;70.24;102947.75;5051140;28;20021;-44
2022/12/01 04:44:49;;;;;;;57.90;19.65;;;;;;;6.25;70.00;102946.97;5051454;28;20037;-42
2022/12/01 04:47:14;;;;;;;62.25;20.73;;;;;;;6.24;70.06;102959.03;5053005;28;20090;-42
2022/12/01 04:49:40;;;;;;;59.38;20.17;;;;;;;6.24;70.05;102947.75;5054297;28;20017;-42
2022/12/01 04:52:06;;;;;;;70.25;20.83;;;;;;;6.25;70.17;102946.97;5052858;28;20168;-47
2022/12/01 04:54:31;;;;;;;61.95;19.73;;;;;;;6.25;70.28;102945.28;5051720;28;20362;-43
2022/12/01 04:56:57;;;;;;;59.80;19.40;;;;;;;6.26;70.27;102946.19;5052053;28;20137;-42
2022/12/01 04:59:22;;;;;;;60.35;19.85;;;;;;;6.32;70.03;102936.22;5051982;28;20368;-44
2022/12/01 05:01:47;;;;;;;73.15;20.67;;;;;;;6.22;70.54;102942.47;5051931;28;20427;-44
2022/12/01 05:04:13;;;;;;;87.60;21.52;;;;;;;6.22;70.48;102947.66;5052239;28;20444;-43
2022/12/01 05:06:41;;;;;;;89.70;20.80;;;;;;;5.98;71.93;102952.16;5052038;28;20067;-41
2022/12/01 05:09:06;;;;;;;68.22;20.70;;;;;;;6.26;71.66;102946.19;5051429;28;20504;-42
2022/12/01 05:11:32;;;;;;;66.03;20.27;;;;;;;6.47;70.99;102948.41;5051046;28;20041;-45
2022/12/01 05:13:58;;;;;;;62.17;20.10;;;;;;;6.60;70.81;102939.72;5054254;28;20032;-44
2022/12/01 05:16:26;;;;;;;72.03;21.00;;;;;;;6.64;71.05;102941.72;5055808;28;20032;-41
2022/12/01 05:20:55;;;;;;;71.03;20.75;;;;;;;6.67;71.19;102949.66;5053101;28;20024;-41
2022/12/01 05:21:41;;;;;;;67.10;20.65;;;;;;;6.87;70.68;102956.09;5050314;28;20029;-44
2022/12/01 05:24:07;;;;;;;73.13;21.77;;;;;;;6.74;71.06;102954.44;5051128;28;20064;-45
2022/12/01 05:26:33;;;;;;;70.97;21.70;;;;;;;6.80;70.53;102946.13;5053838;28;20025;-41
2022/12/01 05:28:58;;;;;;;63.60;21.13;;;;;;;6.74;70.21;102956.13;5053789;28;20029;-41
2022/12/01 05:31:23;;;;;;;72.03;22.23;;;;;;;6.40;70.86;102956.59;5055225;28;20021;-44
2022/12/01 05:33:48;;;;;;;64.32;20.98;;;;;;;6.56;70.11;102963.66;5056202;28;20029;-44
2022/12/01 05:36:14;;;;;;;71.53;21.42;;;;;;;6.57;69.94;102960.28;5053258;28;20021;-42
2022/12/01 05:38:39;;;;;;;62.22;20.58;;;;;;;6.56;70.18;102955.88;5054160;28;20020;-45
2022/12/01 05:41:04;;;;;;;62.83;20.95;;;;;;;6.53;69.85;102953.09;5055645;28;20052;-41
2022/12/01 05:43:30;;;;;;;67.03;20.23;;;;;;;6.50;69.69;102960.69;5054108;28;20017;-43
2022/12/01 05:45:56;;;;;;;64.00;20.77;;;;;;;6.27;70.75;102953.16;5050261;28;20190;-45
2022/12/01 05:48:21;;;;;;;61.20;18.38;;;;;;;6.18;72.07;102965.50;5050728;28;20346;-43
2022/12/01 05:50:47;;;;;;;38.30;16.05;;;;;;;6.34;71.20;102971.75;5049815;28;20025;-44
2022/12/01 05:53:13;;;;;;;64.90;17.70;;;;;;;6.45;70.72;102975.06;5050400;28;20075;-42
2022/12/01 05:55:39;;;;;;;52.88;17.25;;;;;;;6.48;70.90;102970.94;5050172;28;20024;-42
2022/12/01 05:58:05;;;;;;;82.43;16.73;;;;;;;6.50;71.38;102969.34;5050040;28;20358;-43
2022/12/01 06:00:30;;;;;;;60.05;17.48;;;;;;;6.61;71.41;102967.44;5052569;28;20074;-44
2022/12/01 06:02:55;;;;;;;65.40;17.95;;;;;;;6.73;71.24;102967.28;5052431;28;20021;-44
2022/12/01 06:05:21;;;;;;;55.42;16.20;;;;;;;6.75;71.05;102976.06;5052187;28;20124;-46
2022/12/01 06:07:46;;;;;;;56.60;17.42;;;;;;;6.73;70.87;102968.19;5051775;28;20115;-43
2022/12/01 06:10:11;;;;;;;66.03;18.40;;;;;;;6.67;71.05;102972.09;5052126;28;20029;-45
2022/12/01 06:12:37;;;;;;;51.10;18.60;;;;;;;6.65;71.26;102973.72;5052220;28;20529;-45
2022/12/01 06:15:05;;;;;;;56.03;19.60;;;;;;;6.68;71.03;102974.78;5051490;28;20579;-43
2022/12/01 06:17:31;;;;;;;61.67;19.08;;;;;;;6.66;70.67;102975.47;5050876;28;20063;-42
2022/12/01 06:19:56;;;;;;;60.47;19.02;;;;;;;6.55;71.82;102982.59;5053373;28;20028;-43
2022/12/01 06:22:21;;;;;;;61.67;19.65;;;;;;;6.79;71.57;102978.94;5056071;28;20028;-43
2022/12/01 06:24:47;;;;;;;64.43;19.73;;;;;;;6.90;71.31;102974.41;5057208;28;20044;-46
2022/12/01 06:27:12;;;;;;;69.97;20.83;;;;;;;6.91;71.09;102987.47;5055473;28;20048;-45
2022/12/01 06:29:37;;;;;;;65.60;20.58;;;;;;;6.97;71.21;102975.69;5058522;28;20133;-42
2022/12/01 06:32:03;;;;;;;72.30;20.52;;;;;;;7.01;71.09;102983.78;5058542;28;20104;-42
2022/12/01 06:34:28;;;;;;;68.93;20.73;;;;;;;7.08;71.15;102992.78;5057836;28;20052;-45
2022/12/01 06:36:53;;;;;;;76.95;21.90;;;;;;;7.07;71.09;102989.34;5055261;28;20246;-46
2022/12/01 06:39:19;;;;;;;80.63;22.08;;;;;;;7.00;71.58;102983.66;5054925;28;20083;-42
2022/12/01 06:41:44;;;;;;;75.53;21.85;;;;;;;6.99;71.89;102990.56;5054872;28;20150;-43
2022/12/01 06:44:10;;;;;;;81.28;23.10;;;;;;;6.82;72.73;102986.03;5054477;28;20393;-43
2022/12/01 06:46:35;;;;;;;90.15;24.20;;;;;;;6.78;73.18;102989.22;5054239;28;20389;-46
2022/12/01 06:49:01;;;;;;;92.72;23.10;;;;;;;7.10;72.45;102988.59;5053708;28;20052;-40
2022/12/01 06:51:27;;;;;;;91.72;24.17;;;;;;;7.07;71.78;102991.03;5054231;28;20056;-43
2022/12/01 06:53:53;;;;;;;79.68;23.65;;;;;;;7.26;71.19;102987.03;5053914;28;20104;-43
2022/12/01 06:56:19;;;;;;;82.68;23.10;;;;;;;7.33;70.97;102994.38;5053739;28;20074;-41
2022/12/01 06:58:44;;;;;;;78.20;22.05;;;;;;;7.32;70.84;102991.69;5053667;28;20029;-40
2022/12/01 07:01:11;;;;;;;77.78;22.17;;;;;;;7.40;70.79;102993.06;5053414;28;20021;-45
2022/12/01 07:03:37;;;;;;;78.15;22.40;;;;;;;7.31;70.87;102997.72;5052280;28;20024;-43
2022/12/01 07:06:03;;;;;;;72.47;22.17;;;;;;;7.29;71.00;102994.09;5053357;28;20029;-44
2022/12/01 07:08:30;;;;;;;78.50;23.33;;;;;;;7.29;70.86;102996.72;5053618;28;20366;-44
2022/12/01 07:11:07;;;;;;;76.50;22.60;;;;;;;7.40;70.84;103003.44;5054978;28;20021;-43
2022/12/01 07:13:33;;;;;;;86.28;23.40;;;;;;;7.23;70.84;103001.53;5054111;28;20374;-44
2022/12/01 07:15:59;;;;;;;82.20;24.10;;;;;;;7.42;70.75;103012.22;5053943;28;20031;-46
2022/12/01 07:18:24;;;;;;;91.10;25.88;;;;;;;7.39;70.76;103004.22;5053982;28;20515;-41
2022/12/01 07:20:49;;;;;;;89.38;25.05;;;;;;;7.24;71.86;103005.91;5054201;28;20421;-43
2022/12/01 07:23:15;;;;;;;91.15;24.27;;;;;;;7.26;71.82;102999.09;5054119;28;20013;-42
2022/12/01 07:25:40;;;;;;;91.55;24.42;;;;;;;7.29;71.55;103002.78;5054249;28;20021;-42
2022/12/01 07:28:05;;;;;;;83.75;24.52;;;;;;;7.31;71.09;103014.16;5053892;28;20038;-44
2022/12/01 07:30:31;;;;;;;80.93;22.98;;;;;;;7.43;71.06;103010.53;5053195;28;20416;-43
2022/12/01 07:32:56;;;;;;;90.65;24.55;;;;;;;7.43;71.24;103019.19;5052023;28;20033;-42
2022/12/01 07:35:21;;;;;;;85.85;23.45;;;;;;;7.59;71.35;103027.09;5052094;28;20017;-43
2022/12/01 07:37:47;;;;;;;76.70;23.67;;;;;;;7.70;71.15;103030.31;5052673;28;20025;-42
2022/12/01 07:40:13;;;;;;;89.75;25.05;;;;;;;7.65;71.63;103024.84;5052764;28;20064;-42
2022/12/01 07:42:41;;;;;;;91.63;26.08;;;;;;;7.72;71.24;103033.91;5052922;28;20055;-41
2022/12/01 07:45:07;;;;;;;85.10;24.00;;;;;;;7.79;71.54;103035.16;5052904;28;20033;-43
2022/12/01 07:47:32;;;;;;;84.38;24.27;;;;;;;7.83;71.76;103038.03;5053283;28;20145;-41
2022/12/01 07:49:57;;;;;;;91.97;25.38;;;;;;;7.84;71.77;103033.72;5052463;28;20110;-45
2022/12/01 07:52:23;;;;;;;93.68;25.42;;;;;;;7.69;72.30;103041.50;5055869;28;20037;-43
2022/12/01 07:54:48;;;;;;;93.25;24.83;;;;;;;7.87;72.30;103037.38;5058860;28;20055;-42
2022/12/01 07:57:13;;;;;;;89.53;25.27;;;;;;;7.93;71.61;103037.75;5058575;28;20079;-41
2022/12/01 07:59:39;;;;;;;93.80;25.20;;;;;;;8.02;71.46;103046.09;5058287;28;20017;-42
2022/12/01 08:02:04;;;;;;;89.72;25.38;;;;;;;8.08;71.76;103050.75;5057747;28;20482;-43
2022/12/01 08:04:30;;;;;;;88.20;25.80;;;;;;;8.13;71.39;103051.91;5052907;28;20040;-42
2022/12/01 08:06:55;;;;;;;91.53;25.02;;;;;;;8.16;71.63;103046.91;5053283;28;20032;-42
2022/12/01 08:09:20;;;;;;;83.15;25.45;;;;;;;8.18;71.71;103046.97;5053739;28;20029;-42
2022/12/01 08:11:45;;;;;;;89.75;25.38;;;;;;;8.23;71.63;103050.75;5054370;28;20442;-45
2022/12/01 08:14:11;;;;;;;94.70;25.98;;;;;;;8.29;71.47;103046.81;5054365;28;20087;-41
2022/12/01 08:16:36;;;;;;;86.10;24.23;;;;;;;8.36;71.68;103043.75;5053134;28;20032;-43
2022/12/01 08:19:01;;;;;;;86.03;25.08;;;;;;;8.39;71.80;103048.22;5052627;28;20052;-41
2022/12/01 08:21:27;;;;;;;90.80;26.33;;;;;;;8.23;72.07;103051.66;5051778;28;20028;-41
2022/12/01 08:23:56;;;;;;;90.32;25.85;;;;;;;8.26;72.83;103057.00;5051594;28;20104;-43
2022/12/01 08:26:23;;;;;;;89.88;25.80;;;;;;;8.37;72.31;103053.34;5054075;28;20406;-42
2022/12/01 08:28:48;;;;;;;94.40;26.27;;;;;;;8.29;72.30;103059.78;5051079;28;20029;-42
2022/12/01 08:31:28;;;;;;;87.10;25.38;;;;;;;8.61;71.87;103056.44;5054097;28;20021;-42
2022/12/01 08:33:54;;;;;;;80.63;23.80;;;;;;;8.69;71.84;103049.06;5054470;28;20037;-46
2022/12/01 08:36:20;;;;;;;84.35;24.30;;;;;;;8.87;71.58;103063.97;5054108;28;20025;-45
2022/12/01 08:38:47;;;;;;;89.10;25.00;;;;;;;8.88;71.64;103067.47;5051597;28;20055;-44
2022/12/01 08:41:14;;;;;;;89.00;26.50;;;;;;;8.54;72.22;103062.97;5051257;28;20029;-41
2022/12/01 08:43:41;;;;;;;85.78;25.23;;;;;;;8.90;71.69;103066.72;5051357;28;20040;-46
2022/12/01 08:46:07;;;;;;;80.55;24.75;;;;;;;9.01;71.91;103061.25;5051090;28;20025;-44
2022/12/01 08:48:33;;;;;;;84.93;24.90;;;;;;;9.13;71.28;103061.91;5036781;28;20028;-41
2022/12/01 08:51:12;;;;;;;80.65;24.73;;;;;;;9.26;71.21;103065.25;5031249;28;20436;-41
2022/12/01 08:53:40;;;;;;;85.63;25.00;;;;;;;9.38;71.65;103053.69;5031422;28;20481;-43
2022/12/01 08:56:12;;;;;;;77.80;24.38;;;;;;;9.30;71.77;103059.38;5029994;28;20064;-43
2022/12/01 08:58:37;;;;;;;84.70;26.27;;;;;;;9.06;71.77;103052.88;5030961;28;20018;-43
2022/12/01 09:01:06;;;;;;;79.78;25.15;;;;;;;9.17;72.06;103054.34;5030944;28;20465;-44
2022/12/01 09:03:33;;;;;;;88.22;26.40;;;;;;;9.04;71.97;103053.59;5032665;28;20013;-44
2022/12/01 09:06:07;;;;;;;79.07;25.95;;;;;;;9.31;71.47;103052.47;5031366;28;20036;-42
2022/12/01 09:11:13;;;;;;;92.65;26.90;;;;;;;9.53;70.92;103054.47;5009221;28;20073;-40
2022/12/01 09:13:39;;;;;;;78.80;25.58;;;;;;;9.53;72.07;103057.09;5011328;28;20058;-41
2022/12/01 09:16:16;;;;;;;89.22;27.08;;;;;;;9.64;72.00;103054.22;5011259;28;20026;-41
2022/12/01 09:18:44;;;;;;;86.22;26.45;;;;;;;9.60;71.09;103056.59;5011396;28;20042;-42
2022/12/01 09:21:12;;;;;;;73.60;25.77;;;;;;;9.70;71.21;103054.53;5009851;28;20030;-41
2022/12/01 09:23:38;;;;;;;82.10;26.65;;;;;;;9.76;71.08;103057.47;5011492;28;20033;-41
2022/12/01 09:26:04;;;;;;;83.63;26.83;;;;;;;9.94;71.18;103056.63;5011312;28;20389;-41
2022/12/01 09:28:29;;;;;;;80.25;26.45;;;;;;;10.04;71.81;103058.88;5010537;28;20037;-43
2022/12/01 09:30:55;;;;;;;79.45;25.92;;;;;;;10.04;71.43;103058.88;5010834;28;20032;-42
2022/12/01 09:33:21;;;;;;;78.57;25.50;;;;;;;9.80;70.93;103062.84;5011094;28;20033;-39
2022/12/01 09:35:46;;;;;;;75.75;25.52;;;;;;;10.13;70.52;103055.00;5011753;28;20378;-38
2022/12/01 09:38:11;;;;;;;75.30;25.95;;;;;;;10.06;71.24;103055.50;5015613;28;20029;-43
2022/12/01 09:40:39;;;;;;;73.07;26.27;;;;;;;10.25;70.57;103057.34;5014268;28;20036;-40
2022/12/01 09:43:21;;;;;;;73.38;25.27;;;;;;;10.02;70.42;103055.28;5011774;28;20029;-42
2022/12/01 09:45:51;;;;;;;72.32;25.67;;;;;;;10.22;70.20;103056.31;5011507;28;20030;-41
2022/12/01 09:48:41;;;;;;;68.53;25.15;;;;;;;10.24;69.28;103055.59;5011033;28;20029;-41
2022/12/01 09:51:13;;;;;;;69.38;25.25;;;;;;;10.42;69.45;103053.88;5010975;28;20479;-40
2022/12/01 09:53:38;;;;;;;69.30;24.88;;;;;;;10.31;69.61;103044.63;5010899;28;20049;-38
2022/12/01 09:56:04;;;;;;;72.57;25.60;;;;;;;10.41;68.95;103043.38;5010051;28;20462;-44
2022/12/01 09:58:31;;;;;;;69.50;25.27;;;;;;;10.33;68.40;103048.19;5008826;28;20034;-41
2022/12/01 10:00:56;;;;;;;67.72;25.17;;;;;;;10.58;68.59;103039.84;5010271;28;20021;-40
2022/12/01 10:03:45;;;;;;;62.90;25.55;;;;;;;10.39;68.29;103038.06;5010588;28;20540;-40
2022/12/01 10:06:15;;;;;;;68.35;24.95;;;;;;;10.35;68.05;103038.75;5010633;28;20052;-41
2022/12/01 10:08:51;;;;;;;64.88;24.80;;;;;;;10.24;68.21;103029.53;5010747;28;20021;-41
2022/12/01 10:11:38;;;;;;;63.85;24.85;;;;;;;10.18;68.40;103041.34;5010351;28;20029;-41
2022/12/01 10:14:09;;;;;;;66.30;24.77;;;;;;;10.21;68.36;103031.06;5010365;28;20478;-42
2022/12/01 10:16:46;;;;;;;56.70;23.35;;;;;;;10.19;68.12;103028.38;5009175;28;20109;-41
2022/12/01 10:19:14;;;;;;;64.28;24.58;;;;;;;10.20;68.38;103027.56;5010244;28;20398;-41
2022/12/01 10:22:03;;;;;;;61.38;23.83;;;;;;;10.00;68.83;103029.16;5009951;28;20390;-40
2022/12/01 10:24:36;;;;;;;70.82;25.38;;;;;;;10.16;68.63;103031.75;5010918;28;20029;-39
2022/12/01 10:27:24;;;;;;;65.30;25.70;;;;;;;9.73;68.32;103032.97;5011331;28;20041;-40
2022/12/01 10:29:59;;;;;;;68.82;26.10;;;;;;;9.78;68.90;103035.00;5010886;28;20048;-41
2022/12/01 10:32:51;;;;;;;69.25;25.88;;;;;;;9.77;69.60;103028.00;5008978;28;20029;-43
2022/12/01 10:35:22;;;;;;;68.35;24.35;;;;;;;10.06;68.30;103031.19;5012704;28;20033;-40
2022/12/01 10:37:55;;;;;;;70.63;25.92;;;;;;;10.10;67.95;103027.91;5011909;28;20079;-43
2022/12/01 10:40:21;;;;;;;63.92;25.42;;;;;;;10.05;68.94;103029.41;5011191;28;20025;-37
2022/12/01 10:42:49;;;;;;;63.28;24.42;;;;;;;9.73;69.26;103026.06;5011592;28;20025;-42
2022/12/01 10:45:16;;;;;;;67.20;25.77;;;;;;;9.82;68.87;103028.22;5011369;28;20053;-42
2022/12/01 10:48:17;;;;;;;65.30;24.65;;;;;;;9.98;68.90;103033.41;5012316;28;20484;-42
2022/12/01 10:50:48;;;;;;;62.30;25.38;;;;;;;9.88;69.07;103025.91;5013334;28;20425;-42
2022/12/01 10:53:22;;;;;;;64.28;25.00;;;;;;;9.80;69.48;103023.78;5012888;28;20030;-41
2022/12/01 10:55:50;;;;;;;61.53;25.55;;;;;;;10.10;68.72;103020.09;5012646;28;20061;-40
2022/12/01 10:58:18;;;;;;;61.92;25.25;;;;;;;10.40;68.60;103026.81;5012491;28;20641;-42
2022/12/01 11:00:54;;;;;;;66.97;25.27;;;;;;;10.04;69.72;103033.72;5012396;28;20096;-40
2022/12/01 11:03:27;;;;;;;64.05;25.38;;;;;;;10.15;69.43;103022.09;5013477;28;20430;-39
2022/12/01 11:05:56;;;;;;;63.92;24.77;;;;;;;10.13;69.36;103021.13;5012213;28;20034;-41
2022/12/01 11:08:28;;;;;;;68.57;24.90;;;;;;;10.23;69.06;103012.09;5014751;28;20414;-40
2022/12/01 11:10:54;;;;;;;65.68;24.50;;;;;;;10.10;69.47;103012.25;5016800;28;20040;-42
2022/12/01 11:13:28;;;;;;;62.70;25.10;;;;;;;10.24;68.18;103011.28;5019090;28;20030;-42
2022/12/01 11:15:56;;;;;;;58.67;23.77;;;;;;;10.34;68.01;103016.09;5016824;28;20030;-39
2022/12/01 11:18:21;;;;;;;66.60;25.55;;;;;;;10.10;68.23;103012.25;5017404;28;20172;-41
2022/12/01 11:20:47;;;;;;;60.33;24.55;;;;;;;10.28;67.89;103007.09;5017246;28;20494;-37
2022/12/01 11:23:19;;;;;;;65.68;23.98;;;;;;;10.39;68.02;103000.66;5016409;28;20544;-40
2022/12/01 11:25:58;;;;;;;55.40;23.05;;;;;;;10.13;67.84;103002.88;5015740;28;20044;-41
2022/12/01 11:28:24;;;;;;;61.05;23.60;;;;;;;10.18;67.54;102995.34;5014772;28;20034;-42